Time;durP1;ratioP1;P1;durP2;ratioP2;P2;SDS_P1;SDS_P2;PMS_P1;PMS_P2;Temp;Humidity;BMP_temperature;BMP_pressure;BME280_temperature;BME280_humidity;BME280_pressure;Samples;Min_cycle;Max_cycle;Signal;HPM_P1;HPM_P2
2023/09/03 00:02:13;;;;;;;14.63;12.18;;;15.50;99.90;;;;;;5035589;28;20029;-68
2023/09/03 00:04:39;;;;;;;16.75;11.50;;;15.50;99.90;;;;;;5035168;28;20506;-68
2023/09/03 00:07:04;;;;;;;15.52;11.23;;;15.50;99.90;;;;;;5035580;28;20097;-69
2023/09/03 00:09:30;;;;;;;14.57;11.00;;;15.50;99.90;;;;;;5035439;28;20017;-69
2023/09/03 00:11:56;;;;;;;15.50;10.80;;;15.50;99.90;;;;;;5035373;28;20017;-68
2023/09/03 00:14:22;;;;;;;12.60;9.98;;;15.40;99.90;;;;;;5035435;28;20029;-69
2023/09/03 00:16:48;;;;;;;14.95;10.63;;;15.40;99.90;;;;;;5035261;28;20025;-68
2023/09/03 00:19:14;;;;;;;15.95;11.00;;;15.30;99.90;;;;;;5035392;28;20029;-68
2023/09/03 00:21:40;;;;;;;13.27;10.27;;;15.30;99.90;;;;;;5035383;28;20168;-68
2023/09/03 00:24:05;;;;;;;14.23;10.55;;;15.30;99.90;;;;;;5028412;28;20052;-68
2023/09/03 00:26:31;;;;;;;11.20;9.32;;;15.30;99.90;;;;;;5014811;28;20030;-68
2023/09/03 00:28:59;;;;;;;12.30;10.05;;;15.30;99.90;;;;;;5015274;28;20029;-68
2023/09/03 00:31:26;;;;;;;12.98;10.25;;;15.30;99.90;;;;;;5015259;28;20022;-68
2023/09/03 00:33:52;;;;;;;14.50;10.32;;;15.30;99.90;;;;;;5015570;28;20034;-68
2023/09/03 00:36:18;;;;;;;12.48;10.73;;;15.20;99.90;;;;;;5014076;28;20514;-68
2023/09/03 00:38:49;;;;;;;16.23;10.85;;;15.30;99.90;;;;;;5013944;28;20038;-68
2023/09/03 00:41:15;;;;;;;;;;;15.30;99.90;;;;;;5014378;28;20373;-68
2023/09/03 00:43:41;;;;;;;13.73;9.90;;;15.40;99.90;;;;;;5015396;28;19915;-68
2023/09/03 00:46:08;;;;;;;15.43;10.18;;;15.30;99.90;;;;;;5015212;28;20033;-69
2023/09/03 00:48:37;;;;;;;17.33;10.07;;;15.20;99.90;;;;;;5015169;28;20025;-68
2023/09/03 00:51:08;;;;;;;11.75;10.48;;;15.20;99.90;;;;;;5015007;28;20026;-68
2023/09/03 00:53:36;;;;;;;12.55;10.10;;;15.20;99.90;;;;;;5024196;28;20445;-69
2023/09/03 00:56:03;;;;;;;14.05;11.07;;;15.20;99.90;;;;;;5034903;28;20029;-68
2023/09/03 00:58:29;;;;;;;12.93;10.77;;;15.20;99.90;;;;;;5033569;28;20386;-68
2023/09/03 01:00:56;;;;;;;12.95;11.20;;;15.10;99.90;;;;;;5034519;28;20075;-69
2023/09/03 01:03:22;;;;;;;16.92;10.88;;;15.10;99.90;;;;;;5034628;28;20387;-69
2023/09/03 01:05:49;;;;;;;13.35;11.63;;;15.00;99.90;;;;;;5033101;28;20568;-69
2023/09/03 01:08:15;;;;;;;12.48;10.45;;;15.00;99.90;;;;;;5034529;28;20033;-68
2023/09/03 01:11:17;;;;;;;15.98;11.45;;;15.10;99.90;;;;;;5034761;28;20100;-68
2023/09/03 01:13:49;;;;;;;15.75;10.77;;;15.10;99.90;;;;;;5034779;28;20043;-68
2023/09/03 01:16:31;;;;;;;14.02;10.88;;;15.10;99.90;;;;;;5033267;28;20041;-68
2023/09/03 01:19:00;;;;;;;12.38;10.38;;;15.00;99.90;;;;;;5034442;28;20037;-69
2023/09/03 01:21:50;;;;;;;12.93;10.82;;;15.00;99.90;;;;;;5034547;28;20060;-68
2023/09/03 01:24:43;;;;;;;14.70;10.48;;;14.90;99.90;;;;;;5026273;28;20034;-68
2023/09/03 01:27:22;;;;;;;13.18;10.63;;;15.00;99.90;;;;;;5013114;28;20124;-68
2023/09/03 01:29:49;;;;;;;11.70;10.27;;;14.90;99.90;;;;;;5014605;28;20033;-69
2023/09/03 01:32:18;;;;;;;12.27;10.60;;;14.80;99.90;;;;;;5013572;28;20072;-68
2023/09/03 01:34:46;;;;;;;12.50;11.13;;;14.80;99.90;;;;;;5013237;28;20558;-68
2023/09/03 01:37:12;;;;;;;13.38;10.75;;;14.80;99.90;;;;;;5013428;28;20029;-69
2023/09/03 01:39:38;;;;;;;12.55;10.57;;;15.00;99.90;;;;;;5016562;28;20041;-68
2023/09/03 01:42:04;;;;;;;13.77;10.48;;;15.10;99.90;;;;;;5018380;28;20033;-68
2023/09/03 01:44:30;;;;;;;16.05;11.02;;;15.00;99.90;;;;;;5018453;28;20049;-69
2023/09/03 01:47:14;;;;;;;15.52;10.65;;;14.90;99.90;;;;;;5018410;28;20026;-68
2023/09/03 01:49:47;;;;;;;13.20;10.93;;;14.80;99.90;;;;;;5018468;28;20026;-69
2023/09/03 01:52:51;;;;;;;13.30;10.73;;;14.80;99.90;;;;;;5018418;28;20080;-68
2023/09/03 01:55:19;;;;;;;13.43;10.75;;;14.70;99.90;;;;;;5016978;28;20522;-68
2023/09/03 01:57:55;;;;;;;15.30;10.52;;;14.60;99.90;;;;;;5018194;28;20494;-68
2023/09/03 02:00:21;;;;;;;13.85;10.98;;;14.60;99.90;;;;;;5017050;28;20033;-69
2023/09/03 02:02:48;;;;;;;15.05;10.70;;;14.60;99.90;;;;;;5018287;28;20032;-69
2023/09/03 02:05:14;;;;;;;13.77;10.65;;;14.60;99.90;;;;;;5017971;28;20046;-68
2023/09/03 02:07:41;;;;;;;15.48;10.60;;;14.50;99.90;;;;;;5018177;28;20034;-68
2023/09/03 02:10:07;;;;;;;15.43;10.65;;;14.60;99.90;;;;;;5017881;28;20092;-68
2023/09/03 02:12:33;;;;;;;15.18;9.55;;;14.60;99.90;;;;;;5016714;28;20076;-68
2023/09/03 02:14:59;;;;;;;12.40;9.57;;;14.60;99.90;;;;;;5018024;28;20034;-68
2023/09/03 02:17:26;;;;;;;14.65;9.63;;;14.60;99.90;;;;;;5017790;28;20112;-69
2023/09/03 02:19:53;;;;;;;14.43;9.32;;;14.50;99.90;;;;;;5017913;28;20057;-68
2023/09/03 02:22:19;;;;;;;13.18;9.40;;;14.40;99.90;;;;;;5033068;28;20506;-68
2023/09/03 02:24:45;;;;;;;10.98;9.57;;;14.30;99.90;;;;;;5029709;28;20173;-68
2023/09/03 02:27:11;;;;;;;13.43;9.40;;;14.30;99.90;;;;;;5037775;28;20079;-68
2023/09/03 02:29:39;;;;;;;14.00;10.10;;;14.40;99.90;;;;;;5036180;28;20443;-68
2023/09/03 02:32:06;;;;;;;14.93;9.70;;;14.50;99.90;;;;;;5037283;28;20033;-68
2023/09/03 02:34:32;;;;;;;15.10;10.23;;;14.30;99.90;;;;;;5036130;28;20080;-68
2023/09/03 02:36:57;;;;;;;14.15;10.45;;;14.30;99.90;;;;;;5036098;28;20057;-68
2023/09/03 02:39:23;;;;;;;11.45;10.25;;;14.20;99.90;;;;;;5035820;28;20034;-68
2023/09/03 02:41:49;;;;;;;13.63;10.43;;;14.20;99.90;;;;;;5035931;28;20033;-68
2023/09/03 02:44:15;;;;;;;12.43;9.60;;;14.20;99.90;;;;;;5035842;28;20087;-68
2023/09/03 02:46:41;;;;;;;13.20;10.75;;;14.10;99.90;;;;;;5037063;28;20031;-68
2023/09/03 02:49:07;;;;;;;10.98;9.82;;;14.10;99.90;;;;;;5036947;28;20061;-68
2023/09/03 02:51:33;;;;;;;12.43;9.90;;;14.10;99.90;;;;;;5035020;28;20117;-68
2023/09/03 02:53:59;;;;;;;13.05;10.00;;;14.10;99.90;;;;;;5036876;28;20442;-68
2023/09/03 02:56:25;;;;;;;12.65;9.50;;;14.10;99.90;;;;;;5037027;28;20037;-68
2023/09/03 02:58:51;;;;;;;12.55;10.73;;;14.00;99.90;;;;;;5035615;28;20034;-68
2023/09/03 03:01:20;;;;;;;13.95;10.80;;;14.00;99.90;;;;;;5036975;28;20030;-68
2023/09/03 03:03:46;;;;;;;12.43;10.27;;;13.90;99.90;;;;;;5018884;28;20117;-68
2023/09/03 03:06:13;;;;;;;14.93;10.73;;;13.90;99.90;;;;;;5035523;28;20040;-68
2023/09/03 03:08:39;;;;;;;13.30;10.48;;;14.00;99.90;;;;;;5036719;28;20471;-68
2023/09/03 03:11:12;;;;;;;11.73;9.95;;;14.10;99.90;;;;;;5035432;28;20083;-68
2023/09/03 03:13:43;;;;;;;14.50;10.68;;;14.00;99.90;;;;;;5035332;28;20025;-68
2023/09/03 03:16:12;;;;;;;12.02;10.55;;;13.90;99.90;;;;;;5035150;28;20090;-68
2023/09/03 03:18:41;;;;;;;13.63;10.60;;;13.90;99.90;;;;;;5035253;28;20478;-68
2023/09/03 03:21:14;;;;;;;17.92;11.38;;;13.80;99.90;;;;;;5035180;28;20037;-68
2023/09/03 03:23:41;;;;;;;18.45;11.50;;;13.80;99.90;;;;;;5031847;28;20026;-68
2023/09/03 03:26:07;;;;;;;13.85;11.52;;;13.70;99.90;;;;;;5016607;28;20488;-68
2023/09/03 03:28:35;;;;;;;15.30;11.02;;;13.70;99.90;;;;;;5015030;28;20044;-68
2023/09/03 03:31:11;;;;;;;13.38;10.70;;;13.60;99.90;;;;;;5015272;28;20030;-68
2023/09/03 03:33:39;;;;;;;15.45;11.68;;;13.60;99.90;;;;;;5015305;28;20033;-68
2023/09/03 03:36:07;;;;;;;12.82;11.52;;;13.60;99.90;;;;;;5014998;28;20121;-68
2023/09/03 03:38:33;;;;;;;14.77;11.75;;;13.60;99.90;;;;;;5015141;28;20030;-68
2023/09/03 03:41:12;;;;;;;15.93;10.73;;;13.80;99.90;;;;;;5015122;28;20040;-68
2023/09/03 03:43:41;;;;;;;15.67;10.63;;;13.90;99.90;;;;;;5015016;28;20058;-68
2023/09/03 03:46:09;;;;;;;12.00;10.48;;;13.80;99.90;;;;;;5014962;28;20278;-68
2023/09/03 03:48:35;;;;;;;14.95;10.63;;;13.80;99.90;;;;;;5014842;28;20377;-68
2023/09/03 03:51:02;;;;;;;20.00;11.98;;;13.70;99.90;;;;;;5016003;28;20014;-68
2023/09/03 03:53:29;;;;;;;15.77;11.00;;;13.60;99.90;;;;;;5023394;28;20116;-68
2023/09/03 03:56:01;;;;;;;14.35;11.38;;;13.50;99.90;;;;;;5034482;28;20037;-68
2023/09/03 03:58:32;;;;;;;16.98;10.75;;;13.60;99.90;;;;;;5034483;28;20033;-68
2023/09/03 04:00:58;;;;;;;15.45;10.68;;;13.70;99.90;;;;;;5034556;28;20120;-68
2023/09/03 04:03:27;;;;;;;16.92;11.65;;;13.70;99.90;;;;;;5034251;28;20039;-68
2023/09/03 04:06:01;;;;;;;16.42;10.35;;;13.70;99.90;;;;;;5035438;28;20045;-68
2023/09/03 04:08:29;;;;;;;20.90;12.15;;;13.70;99.90;;;;;;5035596;28;20083;-68
2023/09/03 04:11:03;;;;;;;13.82;10.65;;;13.60;99.90;;;;;;5035553;28;20094;-68
2023/09/03 04:13:29;;;;;;;15.52;10.32;;;13.70;99.90;;;;;;5035792;28;20022;-68
2023/09/03 04:15:56;;;;;;;14.27;10.20;;;13.60;99.90;;;;;;5034112;28;20069;-68
2023/09/03 04:18:24;;;;;;;13.50;11.07;;;13.50;99.90;;;;;;5033996;28;20171;-68
2023/09/03 04:20:54;;;;;;;16.27;11.23;;;13.40;99.90;;;;;;5034119;28;20066;-68
2023/09/03 04:23:21;;;;;;;14.38;10.85;;;13.40;99.90;;;;;;5033632;28;20029;-68
2023/09/03 04:25:48;;;;;;;12.48;11.02;;;13.40;99.90;;;;;;5015423;28;20383;-68
2023/09/03 04:28:14;;;;;;;14.30;11.27;;;13.40;99.90;;;;;;5014173;28;20391;-68
2023/09/03 04:30:40;;;;;;;14.85;11.60;;;13.40;99.90;;;;;;5015561;28;20030;-68
2023/09/03 04:33:07;;;;;;;13.95;11.50;;;13.40;99.90;;;;;;5013998;28;20575;-68
2023/09/03 04:35:35;;;;;;;15.50;12.38;;;13.40;99.90;;;;;;5014174;28;20037;-68
2023/09/03 04:38:04;;;;;;;14.52;12.95;;;13.40;99.90;;;;;;5014012;28;20057;-68
2023/09/03 04:40:35;;;;;;;15.27;12.48;;;13.50;99.90;;;;;;5013952;28;20431;-68
2023/09/03 04:43:02;;;;;;;;;;;13.50;99.90;;;;;;5015741;28;20145;-68
2023/09/03 04:45:29;;;;;;;14.90;12.43;;;13.60;99.90;;;;;;5046998;28;20374;-68
2023/09/03 04:47:56;;;;;;;15.90;12.27;;;13.60;99.90;;;;;;5013745;28;20121;-68
2023/09/03 04:50:23;;;;;;;15.40;12.25;;;13.60;99.90;;;;;;5014173;28;20029;-68
2023/09/03 04:52:49;;;;;;;14.82;11.88;;;13.70;99.90;;;;;;5016958;28;20057;-68
2023/09/03 04:55:16;;;;;;;15.35;12.82;;;13.80;99.90;;;;;;5033364;28;20490;-68
2023/09/03 04:57:43;;;;;;;17.48;12.15;;;13.80;99.90;;;;;;5033597;28;20030;-68
2023/09/03 05:00:10;;;;;;;14.20;12.10;;;13.90;99.90;;;;;;5034888;28;20025;-68
2023/09/03 05:02:36;;;;;;;15.35;12.60;;;13.90;99.90;;;;;;5034679;28;20068;-68
2023/09/03 05:05:02;;;;;;;15.98;12.30;;;14.00;99.90;;;;;;5033248;28;20093;-68
2023/09/03 05:07:28;;;;;;;18.60;12.82;;;14.20;99.90;;;;;;5034467;28;20116;-68
2023/09/03 05:09:55;;;;;;;15.93;11.90;;;14.40;99.90;;;;;;5033313;28;20394;-68
2023/09/03 05:12:23;;;;;;;17.17;12.60;;;14.60;99.90;;;;;;5033127;28;20029;-68
2023/09/03 05:14:49;;;;;;;21.35;12.38;;;14.70;99.90;;;;;;5032829;28;20112;-68
2023/09/03 05:17:15;;;;;;;14.73;12.27;;;14.80;99.90;;;;;;5033225;28;20074;-68
2023/09/03 05:19:44;;;;;;;16.45;11.95;;;14.90;99.90;;;;;;5033287;28;20475;-68
2023/09/03 05:22:10;;;;;;;17.15;12.38;;;15.00;99.90;;;;;;5033184;28;20065;-68
2023/09/03 05:24:36;;;;;;;19.95;12.32;;;15.10;99.90;;;;;;5022134;28;20042;-68
2023/09/03 05:27:03;;;;;;;21.13;12.43;;;15.30;99.90;;;;;;5013322;28;20495;-68
2023/09/03 05:29:29;;;;;;;21.83;13.23;;;15.40;99.90;;;;;;5013208;28;20033;-68
2023/09/03 05:31:55;;;;;;;20.58;12.82;;;15.40;99.90;;;;;;5014685;28;20476;-68
2023/09/03 05:34:21;;;;;;;16.92;12.02;;;15.50;99.90;;;;;;5013433;28;20514;-68
2023/09/03 05:36:47;;;;;;;16.90;13.25;;;15.70;99.90;;;;;;5014591;28;20026;-68
2023/09/03 05:39:15;;;;;;;19.35;13.43;;;15.80;99.90;;;;;;5013248;28;20132;-68
2023/09/03 05:41:41;;;;;;;16.85;12.65;;;15.90;99.90;;;;;;5013387;28;20030;-68
2023/09/03 05:44:09;;;;;;;17.40;12.43;;;15.90;99.90;;;;;;5012981;28;20514;-68
2023/09/03 05:46:37;;;;;;;18.63;12.70;;;15.90;99.90;;;;;;5013245;28;20030;-68
2023/09/03 05:49:04;;;;;;;15.70;13.05;;;16.10;99.90;;;;;;5013312;28;20036;-68
2023/09/03 05:51:30;;;;;;;16.98;12.90;;;16.20;99.90;;;;;;5013099;28;20037;-68
2023/09/03 05:53:56;;;;;;;17.05;13.13;;;16.30;99.90;;;;;;5025642;28;20479;-68
2023/09/03 05:56:22;;;;;;;24.67;15.85;;;16.60;99.90;;;;;;5032859;28;20092;-68
2023/09/03 05:58:50;;;;;;;22.40;15.45;;;16.70;99.90;;;;;;5032634;28;20483;-68
2023/09/03 06:01:17;;;;;;;27.33;16.55;;;16.60;99.90;;;;;;5034069;28;20182;-68
2023/09/03 06:03:43;;;;;;;29.60;17.63;;;16.70;99.90;;;;;;5032907;28;20038;-68
2023/09/03 06:06:11;;;;;;;37.75;19.35;;;17.00;99.90;;;;;;5032525;28;20041;-68
2023/09/03 06:08:38;;;;;;;27.27;16.83;;;17.30;99.90;;;;;;5032708;28;20120;-68
2023/09/03 06:11:05;;;;;;;22.15;14.75;;;17.60;99.90;;;;;;5033964;28;20135;-68
2023/09/03 06:13:33;;;;;;;28.48;17.95;;;17.80;99.90;;;;;;5033732;28;20119;-68
2023/09/03 06:15:59;;;;;;;27.23;18.67;;;18.00;99.90;;;;;;5033915;28;20379;-68
2023/09/03 06:18:26;;;;;;;19.45;15.43;;;18.10;99.90;;;;;;5032753;28;20064;-68
2023/09/03 06:20:52;;;;;;;21.25;14.02;;;18.30;99.90;;;;;;5033815;28;20022;-68
2023/09/03 06:23:19;;;;;;;19.48;15.25;;;18.50;99.90;;;;;;5033592;28;20171;-68
2023/09/03 06:25:49;;;;;;;24.33;15.60;;;18.70;99.90;;;;;;5015611;28;20057;-67
2023/09/03 06:28:15;;;;;;;20.70;15.97;;;18.80;99.90;;;;;;5017692;28;20040;-68
2023/09/03 06:30:42;;;;;;;21.15;14.35;;;18.90;99.90;;;;;;5017713;28;20025;-67
2023/09/03 06:33:10;;;;;;;16.08;11.95;;;19.10;99.90;;;;;;5017463;28;20029;-68
2023/09/03 06:35:36;;;;;;;17.38;11.50;;;19.30;99.90;;;;;;5017480;28;20067;-67
2023/09/03 06:38:02;;;;;;;17.63;10.70;;;19.50;99.90;;;;;;5017666;28;20025;-67
2023/09/03 06:40:28;;;;;;;18.02;11.63;;;19.70;99.90;;;;;;5017192;28;20053;-67
2023/09/03 06:42:54;;;;;;;19.95;11.43;;;20.00;99.90;;;;;;5017402;28;20067;-68
2023/09/03 06:45:20;;;;;;;14.05;9.95;;;20.30;99.90;;;;;;5017506;28;20705;-68
2023/09/03 06:47:47;;;;;;;16.88;10.80;;;20.60;99.90;;;;;;5017178;28;20105;-68
2023/09/03 06:50:13;;;;;;;14.10;10.68;;;20.90;99.70;;;;;;5017397;28;20045;-68
2023/09/03 06:52:39;;;;;;;13.70;9.38;;;21.30;98.90;;;;;;5019026;28;20161;-68
2023/09/03 06:55:06;;;;;;;17.17;10.05;;;21.60;97.90;;;;;;5036773;28;20116;-68
2023/09/03 06:57:32;;;;;;;18.10;9.98;;;21.80;97.60;;;;;;5037128;28;20434;-68
2023/09/03 06:59:58;;;;;;;15.07;9.23;;;22.20;96.20;;;;;;5037026;28;20090;-68
2023/09/03 07:02:25;;;;;;;17.42;9.90;;;22.50;95.10;;;;;;5036289;28;20080;-68
2023/09/03 07:04:51;;;;;;;17.33;10.18;;;22.40;93.80;;;;;;5036582;28;20417;-68
2023/09/03 07:07:17;;;;;;;15.00;8.57;;;21.80;94.20;;;;;;5036761;28;20029;-68
2023/09/03 07:09:43;;;;;;;17.05;9.30;;;22.50;94.70;;;;;;5036555;28;20029;-68
2023/09/03 07:12:09;;;;;;;23.15;9.07;;;23.00;92.20;;;;;;5036442;28;20032;-69
2023/09/03 07:14:35;;;;;;;12.60;8.90;;;23.50;91.50;;;;;;5036659;28;20162;-68
2023/09/03 07:17:03;;;;;;;15.70;8.02;;;23.70;90.10;;;;;;5036372;28;20033;-69
2023/09/03 07:19:29;;;;;;;13.55;7.63;;;23.80;87.70;;;;;;5036563;28;20025;-69
2023/09/03 07:21:56;;;;;;;12.25;7.68;;;23.80;84.00;;;;;;5036428;28;20033;-69
2023/09/03 07:24:22;;;;;;;11.85;7.10;;;24.00;81.10;;;;;;5027321;28;20065;-69
2023/09/03 07:26:48;;;;;;;12.60;7.22;;;24.30;75.40;;;;;;5016532;28;20407;-69
2023/09/03 07:29:15;;;;;;;8.77;7.05;;;24.60;74.00;;;;;;5016578;28;20475;-69
2023/09/03 07:31:43;;;;;;;11.95;7.10;;;24.90;73.60;;;;;;5016378;28;20029;-69
2023/09/03 07:34:10;;;;;;;8.50;6.68;;;25.30;72.00;;;;;;5016587;28;20072;-69
2023/09/03 07:36:36;;;;;;;8.77;6.43;;;25.70;72.20;;;;;;5015939;28;20034;-69
2023/09/03 07:39:03;;;;;;;11.52;6.53;;;25.30;72.50;;;;;;5016294;28;20026;-69
2023/09/03 07:41:30;;;;;;;12.20;6.70;;;25.60;70.40;;;;;;5016395;28;20034;-69
2023/09/03 07:43:56;;;;;;;8.07;6.57;;;25.70;68.10;;;;;;5016352;28;20392;-69
2023/09/03 07:46:22;;;;;;;13.68;6.88;;;26.00;67.70;;;;;;5016185;28;20033;-69
2023/09/03 07:48:48;;;;;;;10.30;6.22;;;26.20;66.90;;;;;;5016207;28;20468;-70
2023/09/03 07:51:16;;;;;;;10.07;6.22;;;26.30;64.70;;;;;;5016008;28;20109;-69
2023/09/03 07:53:42;;;;;;;8.00;6.10;;;26.50;63.90;;;;;;5026599;28;20032;-69
2023/09/03 07:56:09;;;;;;;12.60;6.10;;;26.50;62.00;;;;;;5035903;28;20356;-69
2023/09/03 07:58:35;;;;;;;9.80;6.28;;;26.70;61.20;;;;;;5035715;28;20471;-69
2023/09/03 08:01:01;;;;;;;8.43;6.07;;;26.50;60.10;;;;;;5036186;28;20040;-69
2023/09/03 08:03:35;;;;;;;8.90;5.88;;;26.70;59.30;;;;;;5035686;28;20033;-69
2023/09/03 08:06:05;;;;;;;7.38;6.38;;;26.40;62.00;;;;;;5035375;28;20495;-69
2023/09/03 08:08:31;;;;;;;7.95;5.78;;;26.60;60.80;;;;;;5035730;28;20041;-69
2023/09/03 08:10:57;;;;;;;10.35;6.45;;;26.30;63.90;;;;;;5035692;28;20049;-69
2023/09/03 08:13:23;;;;;;;9.77;6.60;;;26.70;61.80;;;;;;5035083;28;20041;-69
2023/09/03 08:15:49;;;;;;;9.57;6.25;;;27.20;60.00;;;;;;5035352;28;20064;-69
2023/09/03 08:18:16;;;;;;;7.22;6.13;;;27.50;58.70;;;;;;5035398;28;20022;-69
2023/09/03 08:20:43;;;;;;;8.98;6.40;;;27.70;57.10;;;;;;5035321;28;20025;-69
2023/09/03 08:23:13;;;;;;;10.43;5.78;;;27.80;56.60;;;;;;5035344;28;20057;-69
2023/09/03 08:25:39;;;;;;;12.80;6.75;;;27.90;57.00;;;;;;5015929;28;20125;-69
2023/09/03 08:28:09;;;;;;;10.00;6.38;;;28.00;54.90;;;;;;5015481;28;20077;-69
2023/09/03 08:30:35;;;;;;;9.90;5.82;;;28.20;53.60;;;;;;5015582;28;20057;-69
2023/09/03 08:33:01;;;;;;;11.15;6.03;;;28.20;52.70;;;;;;5014239;28;20037;-70
2023/09/03 08:35:28;;;;;;;8.40;5.97;;;28.50;53.00;;;;;;5015267;28;20049;-69
2023/09/03 08:37:54;;;;;;;9.57;6.82;;;28.50;51.50;;;;;;5015361;28;20476;-70
2023/09/03 08:40:21;;;;;;;11.15;6.28;;;28.50;50.30;;;;;;5015296;28;20030;-69
2023/09/03 08:42:48;;;;;;;11.30;6.40;;;28.10;54.10;;;;;;5015116;28;20083;-69
2023/09/03 08:45:17;;;;;;;9.68;6.35;;;28.20;54.50;;;;;;5015422;28;20057;-70
2023/09/03 08:47:44;;;;;;;10.50;6.47;;;28.60;54.20;;;;;;5014548;28;20033;-69
2023/09/03 08:50:11;;;;;;;11.07;6.93;;;28.90;52.00;;;;;;5015028;28;20051;-69
2023/09/03 08:52:38;;;;;;;11.38;6.30;;;28.20;51.90;;;;;;5016665;28;20018;-69
2023/09/03 08:55:05;;;;;;;9.50;6.15;;;28.50;52.00;;;;;;5034897;28;20090;-69
2023/09/03 08:57:34;;;;;;;12.10;5.97;;;29.00;51.00;;;;;;5034607;28;20052;-69
2023/09/03 09:00:07;;;;;;;8.52;6.32;;;29.30;49.50;;;;;;5034975;28;20395;-69
2023/09/03 09:02:34;;;;;;;11.52;6.50;;;29.90;51.40;;;;;;5034589;28;20048;-69
2023/09/03 09:05:05;;;;;;;11.70;6.60;;;30.00;49.60;;;;;;5034373;28;20053;-70
2023/09/03 09:07:33;;;;;;;10.98;6.72;;;29.80;47.60;;;;;;5034563;28;20069;-70
2023/09/03 09:10:04;;;;;;;8.60;5.78;;;30.30;46.90;;;;;;5034491;28;20032;-70
2023/09/03 09:12:55;;;;;;;12.90;6.70;;;30.50;45.20;;;;;;5034661;28;20075;-70
2023/09/03 09:15:21;;;;;;;8.80;6.60;;;30.60;45.40;;;;;;5034519;28;20053;-70
2023/09/03 09:17:48;;;;;;;10.80;6.28;;;30.60;44.60;;;;;;5034304;28;20103;-70
2023/09/03 09:20:15;;;;;;;9.90;6.53;;;29.80;44.40;;;;;;5034558;28;20044;-70
2023/09/03 09:22:44;;;;;;;7.32;6.20;;;29.60;45.80;;;;;;5034466;28;20025;-70
2023/09/03 09:25:17;;;;;;;11.35;6.80;;;29.90;44.70;;;;;;5018700;28;20069;-70
2023/09/03 09:27:43;;;;;;;10.90;7.25;;;29.80;46.50;;;;;;5014746;28;20026;-71
2023/09/03 09:30:11;;;;;;;9.30;6.90;;;30.00;46.10;;;;;;5014658;28;20026;-70
2023/09/03 09:32:37;;;;;;;10.45;6.78;;;29.80;46.10;;;;;;5014465;28;20061;-69
2023/09/03 09:35:04;;;;;;;12.80;7.05;;;30.80;45.40;;;;;;5014776;28;20128;-70
2023/09/03 09:37:40;;;;;;;10.35;7.22;;;31.40;44.60;;;;;;5014511;28;20060;-70
2023/09/03 09:40:10;;;;;;;10.05;7.75;;;31.90;44.30;;;;;;5014334;28;20041;-70
2023/09/03 09:42:57;;;;;;;8.13;7.32;;;32.00;40.50;;;;;;5014616;28;20037;-70
2023/09/03 09:45:23;;;;;;;10.15;7.80;;;32.20;39.60;;;;;;5014518;28;20088;-70
2023/09/03 09:48:10;;;;;;;12.50;7.68;;;32.70;39.60;;;;;;5014686;28;20463;-70
2023/09/03 09:50:38;;;;;;;11.32;8.00;;;33.20;38.40;;;;;;5014588;28;20041;-70
2023/09/03 09:53:18;;;;;;;13.82;8.23;;;33.30;37.80;;;;;;5019573;28;20025;-70
2023/09/03 09:55:44;;;;;;;10.53;8.30;;;33.00;37.10;;;;;;5034339;28;20022;-70
2023/09/03 09:58:12;;;;;;;13.30;8.50;;;33.20;36.10;;;;;;5034070;28;20250;-70
2023/09/03 10:00:43;;;;;;;8.32;7.10;;;33.70;37.50;;;;;;5037107;28;20030;-70
2023/09/03 10:03:10;;;;;;;12.05;6.40;;;33.80;33.80;;;;;;5038163;28;20025;-71
2023/09/03 10:05:38;;;;;;;12.13;7.38;;;33.60;36.20;;;;;;5037676;28;20105;-71
2023/09/03 10:08:04;;;;;;;14.45;7.38;;;34.10;35.10;;;;;;5037676;28;20034;-70
2023/09/03 10:10:30;;;;;;;12.07;7.05;;;33.60;33.10;;;;;;5038293;28;20586;-70
2023/09/03 10:12:56;;;;;;;13.30;8.43;;;33.60;32.50;;;;;;5037629;28;20074;-70
2023/09/03 10:15:25;;;;;;;13.75;7.13;;;33.80;33.30;;;;;;5037550;28;20562;-70
2023/09/03 10:17:53;;;;;;;8.07;6.50;;;33.80;33.20;;;;;;5037848;28;20497;-70
2023/09/03 10:20:20;;;;;;;14.15;7.22;;;34.10;30.70;;;;;;5037533;28;20037;-71
2023/09/03 10:22:56;;;;;;;8.90;6.60;;;33.30;32.50;;;;;;5037690;28;20087;-70
2023/09/03 10:25:28;;;;;;;10.57;7.38;;;32.90;31.80;;;;;;5020562;28;20029;-70
2023/09/03 10:27:59;;;;;;;8.82;6.97;;;33.50;33.20;;;;;;5017472;28;20487;-70
2023/09/03 10:30:31;;;;;;;9.25;6.80;;;34.10;30.80;;;;;;5018042;28;20022;-70
2023/09/03 10:32:58;;;;;;;11.13;7.47;;;33.40;33.10;;;;;;5017658;28;20501;-72
2023/09/03 10:35:24;;;;;;;11.65;7.90;;;33.80;33.50;;;;;;5017501;28;20061;-71
2023/09/03 10:37:51;;;;;;;10.38;7.70;;;34.00;31.50;;;;;;5017370;28;20063;-70
2023/09/03 10:40:23;;;;;;;13.80;7.45;;;34.00;31.50;;;;;;5017542;28;20026;-71
2023/09/03 10:42:53;;;;;;;9.05;7.72;;;34.00;31.70;;;;;;5017462;28;20030;-71
2023/09/03 10:45:20;;;;;;;;;;;34.30;31.80;;;;;;5017792;28;20033;-71
2023/09/03 10:48:00;;;;;;;12.35;7.70;;;33.70;32.20;;;;;;5017355;28;19986;-71
2023/09/03 10:50:52;;;;;;;9.70;8.07;;;34.40;33.70;;;;;;5017180;28;20109;-71
2023/09/03 10:53:37;;;;;;;9.80;7.82;;;34.50;32.80;;;;;;5023341;28;20163;-71
2023/09/03 10:56:19;;;;;;;9.43;7.72;;;34.40;31.40;;;;;;5036971;28;20032;-71
2023/09/03 10:58:54;;;;;;;10.18;8.10;;;34.60;32.80;;;;;;5036754;28;20447;-71
2023/09/03 11:01:22;;;;;;;9.52;7.82;;;34.50;31.40;;;;;;5036834;28;20110;-71
2023/09/03 11:03:52;;;;;;;8.88;7.82;;;34.30;34.00;;;;;;5036532;28;20027;-69
2023/09/03 11:06:31;;;;;;;13.23;8.15;;;34.50;34.10;;;;;;5036578;28;20033;-71
2023/09/03 11:08:59;;;;;;;11.87;7.33;;;34.10;34.40;;;;;;5036784;28;20471;-71
2023/09/03 11:11:28;;;;;;;10.15;7.35;;;33.80;33.00;;;;;;5035717;28;20032;-71
2023/09/03 11:13:55;;;;;;;13.27;9.13;;;33.60;34.20;;;;;;5036699;28;20029;-71
2023/09/03 11:16:31;;;;;;;12.45;7.35;;;33.80;33.70;;;;;;5036541;28;20029;-71
2023/09/03 11:18:57;;;;;;;13.52;9.25;;;33.40;34.20;;;;;;5036488;28;20483;-71
2023/09/03 11:21:27;;;;;;;8.82;7.05;;;33.60;33.80;;;;;;5036608;28;20052;-71
2023/09/03 11:24:18;;;;;;;8.45;6.45;;;33.20;33.80;;;;;;5031470;28;20073;-70
2023/09/03 11:26:45;;;;;;;10.15;7.07;;;33.20;33.50;;;;;;5016731;28;20431;-70
2023/09/03 11:29:24;;;;;;;12.55;8.15;;;33.50;33.40;;;;;;5016617;28;20034;-71
2023/09/03 11:31:51;;;;;;;10.55;7.38;;;33.30;32.50;;;;;;5016767;28;20026;-71
2023/09/03 11:34:19;;;;;;;7.70;6.53;;;33.50;32.70;;;;;;5014972;28;20398;-71
2023/09/03 11:36:49;;;;;;;9.15;7.65;;;33.30;32.30;;;;;;5016396;28;20026;-71
2023/09/03 11:39:16;;;;;;;15.40;8.02;;;33.00;32.30;;;;;;5016265;28;20030;-71
2023/09/03 11:41:46;;;;;;;12.10;7.28;;;32.90;32.20;;;;;;5016515;28;20029;-71
2023/09/03 11:44:23;;;;;;;11.18;7.07;;;32.90;33.30;;;;;;5016620;28;20038;-71
2023/09/03 11:47:15;;;;;;;13.20;8.43;;;32.90;32.30;;;;;;5016019;28;20399;-71
2023/09/03 11:49:45;;;;;;;7.88;6.60;;;32.60;34.20;;;;;;5015280;28;20034;-71
2023/09/03 11:52:15;;;;;;;14.07;8.40;;;32.60;33.40;;;;;;5016171;28;20534;-70
2023/09/03 11:54:42;;;;;;;9.30;7.93;;;32.60;33.20;;;;;;5034457;28;20028;-71
2023/09/03 11:57:13;;;;;;;10.55;8.10;;;32.60;33.40;;;;;;5035850;28;20033;-71
2023/09/03 11:59:41;;;;;;;11.48;8.90;;;32.30;32.90;;;;;;5035824;28;20028;-70
2023/09/03 12:02:09;;;;;;;10.70;8.25;;;32.40;34.70;;;;;;5035508;28;20041;-70
2023/09/03 12:04:35;;;;;;;14.45;8.88;;;32.20;33.60;;;;;;5035274;28;20060;-70
2023/09/03 12:07:01;;;;;;;13.95;8.65;;;32.20;33.70;;;;;;5035815;28;20048;-70
2023/09/03 12:09:27;;;;;;;11.98;9.38;;;32.10;33.80;;;;;;5035382;28;20108;-70
2023/09/03 12:11:53;;;;;;;11.98;8.13;;;31.90;34.10;;;;;;5035567;28;20031;-71
2023/09/03 12:14:29;;;;;;;11.40;8.05;;;31.50;34.80;;;;;;5035549;28;20461;-70
2023/09/03 12:16:55;;;;;;;10.38;8.50;;;31.70;34.60;;;;;;5035194;28;20036;-70
2023/09/03 12:19:21;;;;;;;11.63;9.73;;;31.70;34.80;;;;;;5035449;28;20391;-70
2023/09/03 12:21:54;;;;;;;10.07;9.07;;;31.50;34.80;;;;;;5035328;28;20025;-71
2023/09/03 12:24:29;;;;;;;10.43;9.32;;;31.30;35.50;;;;;;5025759;28;20462;-70
2023/09/03 12:27:05;;;;;;;12.80;9.35;;;30.90;36.40;;;;;;5015502;28;20391;-71
2023/09/03 12:29:36;;;;;;;11.25;9.73;;;30.90;36.30;;;;;;5015229;28;20113;-69
2023/09/03 12:32:03;;;;;;;12.32;10.07;;;30.90;36.30;;;;;;5015404;28;20487;-70
2023/09/03 12:34:37;;;;;;;11.77;9.70;;;30.60;37.30;;;;;;5015400;28;20134;-70
2023/09/03 12:37:04;;;;;;;10.60;8.55;;;30.40;36.60;;;;;;5015220;28;20022;-70
2023/09/03 12:39:31;;;;;;;14.63;10.15;;;30.40;36.80;;;;;;5015281;28;20109;-71
2023/09/03 12:41:58;;;;;;;17.98;12.07;;;30.20;38.40;;;;;;5015421;28;20060;-70